sensor_id;sensor_type;location;lat;lon;timestamp;noise_LAeq;noise_LA_min;noise_LA_max;noise_LA01;noise_LA95
71016;Laerm;60940;52.046;5.340;2023-02-15T00:00:00;32.78;30.92;34.97;;
71016;Laerm;60940;52.046;5.340;2023-02-15T00:00:11;32.13;30.40;34.25;;
71016;Laerm;60940;52.046;5.340;2023-02-15T00:00:21;32.53;30.43;34.40;;
71016;Laerm;60940;52.046;5.340;2023-02-15T00:00:32;32.28;30.73;33.52;;
71016;Laerm;60940;52.046;5.340;2023-02-15T00:00:42;32.02;30.59;33.45;;
71016;Laerm;60940;52.046;5.340;2023-02-15T00:00:52;32.64;30.48;34.61;;
71016;Laerm;60940;52.046;5.340;2023-02-15T00:01:08;32.61;30.92;34.41;;
71016;Laerm;60940;52.046;5.340;2023-02-15T00:01:18;32.39;30.57;34.68;;
71016;Laerm;60940;52.046;5.340;2023-02-15T00:01:28;32.11;29.96;33.92;;
71016;Laerm;60940;52.046;5.340;2023-02-15T00:01:39;32.32;29.99;34.05;;
71016;Laerm;60940;52.046;5.340;2023-02-15T00:01:50;32.90;30.55;37.67;;
71016;Laerm;60940;52.046;5.340;2023-02-15T00:02:00;32.32;30.70;34.38;;
71016;Laerm;60940;52.046;5.340;2023-02-15T00:02:11;32.86;30.82;34.75;;
71016;Laerm;60940;52.046;5.340;2023-02-15T00:02:21;32.77;30.65;34.89;;
71016;Laerm;60940;52.046;5.340;2023-02-15T00:02:31;32.94;30.72;35.55;;
71016;Laerm;60940;52.046;5.340;2023-02-15T00:02:41;33.43;31.33;35.77;;
71016;Laerm;60940;52.046;5.340;2023-02-15T00:02:51;33.32;31.12;35.34;;
71016;Laerm;60940;52.046;5.340;2023-02-15T00:03:02;33.19;31.14;35.05;;
71016;Laerm;60940;52.046;5.340;2023-02-15T00:03:12;32.67;31.01;34.80;;
71016;Laerm;60940;52.046;5.340;2023-02-15T00:03:22;32.80;30.81;34.70;;
71016;Laerm;60940;52.046;5.340;2023-02-15T00:03:32;32.92;30.75;35.05;;
71016;Laerm;60940;52.046;5.340;2023-02-15T00:03:42;32.44;30.76;34.30;;
71016;Laerm;60940;52.046;5.340;2023-02-15T00:03:53;32.50;30.29;34.93;;
71016;Laerm;60940;52.046;5.340;2023-02-15T00:04:03;32.50;30.81;33.78;;
71016;Laerm;60940;52.046;5.340;2023-02-15T00:04:15;32.68;30.92;34.65;;
71016;Laerm;60940;52.046;5.340;2023-02-15T00:04:25;32.72;30.85;34.72;;
71016;Laerm;60940;52.046;5.340;2023-02-15T00:04:56;32.86;30.07;36.74;;
71016;Laerm;60940;52.046;5.340;2023-02-15T00:05:06;32.85;31.03;34.78;;
71016;Laerm;60940;52.046;5.340;2023-02-15T00:05:16;35.52;31.73;38.91;;
71016;Laerm;60940;52.046;5.340;2023-02-15T00:05:27;37.38;33.51;42.27;;
71016;Laerm;60940;52.046;5.340;2023-02-15T00:05:39;37.80;32.84;42.44;;
71016;Laerm;60940;52.046;5.340;2023-02-15T00:05:49;34.36;32.12;37.93;;
71016;Laerm;60940;52.046;5.340;2023-02-15T00:05:59;33.65;31.57;35.76;;
71016;Laerm;60940;52.046;5.340;2023-02-15T00:06:09;32.97;30.88;34.98;;
71016;Laerm;60940;52.046;5.340;2023-02-15T00:06:19;32.54;30.61;34.51;;
71016;Laerm;60940;52.046;5.340;2023-02-15T00:06:30;32.85;30.38;34.59;;
71016;Laerm;60940;52.046;5.340;2023-02-15T00:06:40;32.17;30.79;33.51;;
71016;Laerm;60940;52.046;5.340;2023-02-15T00:06:51;33.02;30.83;35.48;;
71016;Laerm;60940;52.046;5.340;2023-02-15T00:07:01;33.01;30.96;34.81;;
71016;Laerm;60940;52.046;5.340;2023-02-15T00:07:12;33.33;31.03;35.43;;
71016;Laerm;60940;52.046;5.340;2023-02-15T00:07:22;32.57;30.70;35.51;;
71016;Laerm;60940;52.046;5.340;2023-02-15T00:07:33;32.24;30.30;35.31;;
71016;Laerm;60940;52.046;5.340;2023-02-15T00:07:43;32.81;30.98;34.65;;
71016;Laerm;60940;52.046;5.340;2023-02-15T00:07:53;33.20;31.01;35.13;;
71016;Laerm;60940;52.046;5.340;2023-02-15T00:08:03;33.38;31.12;35.91;;
71016;Laerm;60940;52.046;5.340;2023-02-15T00:08:14;32.79;30.71;35.49;;
71016;Laerm;60940;52.046;5.340;2023-02-15T00:08:24;34.10;31.51;36.72;;
71016;Laerm;60940;52.046;5.340;2023-02-15T00:08:34;33.47;30.92;36.78;;
71016;Laerm;60940;52.046;5.340;2023-02-15T00:08:44;32.87;30.68;35.36;;
71016;Laerm;60940;52.046;5.340;2023-02-15T00:08:54;32.50;30.01;34.69;;
71016;Laerm;60940;52.046;5.340;2023-02-15T00:09:05;32.67;30.69;34.96;;
71016;Laerm;60940;52.046;5.340;2023-02-15T00:09:15;32.06;30.33;34.53;;
71016;Laerm;60940;52.046;5.340;2023-02-15T00:09:25;32.39;30.35;34.44;;
71016;Laerm;60940;52.046;5.340;2023-02-15T00:09:35;32.26;30.05;33.83;;
71016;Laerm;60940;52.046;5.340;2023-02-15T00:09:46;32.14;30.49;33.96;;
71016;Laerm;60940;52.046;5.340;2023-02-15T00:09:56;32.23;30.44;34.12;;
71016;Laerm;60940;52.046;5.340;2023-02-15T00:10:06;32.35;30.75;34.04;;
71016;Laerm;60940;52.046;5.340;2023-02-15T00:10:17;32.63;30.74;34.59;;
71016;Laerm;60940;52.046;5.340;2023-02-15T00:10:27;32.15;30.09;33.86;;
71016;Laerm;60940;52.046;5.340;2023-02-15T00:10:37;32.09;29.77;33.63;;
71016;Laerm;60940;52.046;5.340;2023-02-15T00:10:47;32.50;30.16;37.18;;
71016;Laerm;60940;52.046;5.340;2023-02-15T00:11:04;32.69;30.45;34.75;;
71016;Laerm;60940;52.046;5.340;2023-02-15T00:11:16;32.65;30.14;34.67;;
71016;Laerm;60940;52.046;5.340;2023-02-15T00:11:26;34.20;31.36;37.21;;
71016;Laerm;60940;52.046;5.340;2023-02-15T00:11:49;34.44;30.62;38.17;;
71016;Laerm;60940;52.046;5.340;2023-02-15T00:12:01;32.34;30.41;35.13;;
71016;Laerm;60940;52.046;5.340;2023-02-15T00:12:12;32.38;30.62;34.06;;
71016;Laerm;60940;52.046;5.340;2023-02-15T00:12:22;32.68;30.73;34.75;;
71016;Laerm;60940;52.046;5.340;2023-02-15T00:12:32;32.39;30.53;34.73;;
71016;Laerm;60940;52.046;5.340;2023-02-15T00:12:43;32.56;30.83;34.35;;
71016;Laerm;60940;52.046;5.340;2023-02-15T00:12:53;32.30;30.63;34.55;;
71016;Laerm;60940;52.046;5.340;2023-02-15T00:13:03;32.76;31.04;34.86;;
71016;Laerm;60940;52.046;5.340;2023-02-15T00:13:13;32.48;30.44;34.80;;
71016;Laerm;60940;52.046;5.340;2023-02-15T00:13:23;32.82;30.38;35.31;;
71016;Laerm;60940;52.046;5.340;2023-02-15T00:13:34;32.69;30.70;34.71;;
71016;Laerm;60940;52.046;5.340;2023-02-15T00:13:45;32.29;29.76;34.27;;
71016;Laerm;60940;52.046;5.340;2023-02-15T00:13:56;33.04;30.62;34.96;;
71016;Laerm;60940;52.046;5.340;2023-02-15T00:14:11;32.66;31.15;34.30;;
71016;Laerm;60940;52.046;5.340;2023-02-15T00:14:23;32.79;31.28;34.65;;
71016;Laerm;60940;52.046;5.340;2023-02-15T00:14:33;32.71;30.76;34.51;;
71016;Laerm;60940;52.046;5.340;2023-02-15T00:14:43;32.58;30.65;34.36;;
71016;Laerm;60940;52.046;5.340;2023-02-15T00:14:53;32.45;31.15;34.47;;
71016;Laerm;60940;52.046;5.340;2023-02-15T00:15:04;32.62;31.01;35.00;;
71016;Laerm;60940;52.046;5.340;2023-02-15T00:15:14;32.54;30.71;34.37;;
71016;Laerm;60940;52.046;5.340;2023-02-15T00:15:24;32.13;30.63;34.08;;
71016;Laerm;60940;52.046;5.340;2023-02-15T00:15:35;32.45;30.80;34.35;;
71016;Laerm;60940;52.046;5.340;2023-02-15T00:15:46;32.27;30.26;34.44;;
71016;Laerm;60940;52.046;5.340;2023-02-15T00:16:03;32.33;30.79;34.34;;
71016;Laerm;60940;52.046;5.340;2023-02-15T00:16:13;32.39;30.14;34.55;;
71016;Laerm;60940;52.046;5.340;2023-02-15T00:16:23;32.34;30.33;34.68;;
71016;Laerm;60940;52.046;5.340;2023-02-15T00:16:33;32.46;30.53;34.79;;
71016;Laerm;60940;52.046;5.340;2023-02-15T00:16:44;32.12;29.96;36.28;;
71016;Laerm;60940;52.046;5.340;2023-02-15T00:16:54;32.65;30.39;34.49;;
71016;Laerm;60940;52.046;5.340;2023-02-15T00:17:05;32.98;31.18;34.65;;
71016;Laerm;60940;52.046;5.340;2023-02-15T00:17:15;33.18;30.69;36.10;;
71016;Laerm;60940;52.046;5.340;2023-02-15T00:17:28;32.54;30.82;35.24;;
71016;Laerm;60940;52.046;5.340;2023-02-15T00:17:38;32.19;30.08;33.68;;
71016;Laerm;60940;52.046;5.340;2023-02-15T00:17:48;32.59;30.39;35.26;;
71016;Laerm;60940;52.046;5.340;2023-02-15T00:17:59;32.90;31.14;35.09;;
71016;Laerm;60940;52.046;5.340;2023-02-15T00:18:09;32.86;30.95;34.98;;
71016;Laerm;60940;52.046;5.340;2023-02-15T00:18:19;32.20;30.54;33.85;;
71016;Laerm;60940;52.046;5.340;2023-02-15T00:18:29;32.31;30.62;34.14;;
71016;Laerm;60940;52.046;5.340;2023-02-15T00:18:39;32.60;30.99;35.28;;
71016;Laerm;60940;52.046;5.340;2023-02-15T00:18:51;32.02;30.41;34.36;;
71016;Laerm;60940;52.046;5.340;2023-02-15T00:19:02;32.42;30.58;34.06;;
71016;Laerm;60940;52.046;5.340;2023-02-15T00:19:13;32.27;30.54;34.60;;
71016;Laerm;60940;52.046;5.340;2023-02-15T00:19:24;32.07;30.30;33.97;;
71016;Laerm;60940;52.046;5.340;2023-02-15T00:19:34;32.61;30.87;34.86;;
71016;Laerm;60940;52.046;5.340;2023-02-15T00:19:44;32.05;29.81;33.91;;
71016;Laerm;60940;52.046;5.340;2023-02-15T00:19:54;32.39;30.83;35.24;;
71016;Laerm;60940;52.046;5.340;2023-02-15T00:20:05;32.58;30.06;34.76;;
71016;Laerm;60940;52.046;5.340;2023-02-15T00:20:15;32.55;30.29;34.57;;
71016;Laerm;60940;52.046;5.340;2023-02-15T00:20:25;32.64;30.30;34.97;;
71016;Laerm;60940;52.046;5.340;2023-02-15T00:20:35;32.32;30.70;33.88;;
71016;Laerm;60940;52.046;5.340;2023-02-15T00:20:46;32.37;30.42;34.58;;
71016;Laerm;60940;52.046;5.340;2023-02-15T00:20:56;32.75;30.68;34.56;;
71016;Laerm;60940;52.046;5.340;2023-02-15T00:21:07;31.98;30.43;33.79;;
71016;Laerm;60940;52.046;5.340;2023-02-15T00:21:18;32.42;30.57;34.29;;
71016;Laerm;60940;52.046;5.340;2023-02-15T00:21:29;32.64;30.86;34.69;;
71016;Laerm;60940;52.046;5.340;2023-02-15T00:21:40;32.08;30.49;34.53;;
71016;Laerm;60940;52.046;5.340;2023-02-15T00:21:50;32.56;30.64;34.47;;
71016;Laerm;60940;52.046;5.340;2023-02-15T00:22:01;32.60;30.65;34.66;;
71016;Laerm;60940;52.046;5.340;2023-02-15T00:22:11;32.46;30.55;35.10;;
71016;Laerm;60940;52.046;5.340;2023-02-15T00:22:21;32.38;30.85;34.46;;
71016;Laerm;60940;52.046;5.340;2023-02-15T00:22:31;32.54;30.34;34.60;;
71016;Laerm;60940;52.046;5.340;2023-02-15T00:22:41;31.96;30.57;33.61;;
71016;Laerm;60940;52.046;5.340;2023-02-15T00:22:52;32.46;30.34;34.52;;
71016;Laerm;60940;52.046;5.340;2023-02-15T00:23:02;32.42;30.74;34.60;;
71016;Laerm;60940;52.046;5.340;2023-02-15T00:23:12;31.98;30.70;33.70;;
71016;Laerm;60940;52.046;5.340;2023-02-15T00:23:22;32.40;30.74;34.53;;
71016;Laerm;60940;52.046;5.340;2023-02-15T00:23:32;32.33;30.61;34.79;;
71016;Laerm;60940;52.046;5.340;2023-02-15T00:23:43;32.22;29.92;34.23;;
71016;Laerm;60940;52.046;5.340;2023-02-15T00:23:53;32.40;30.67;34.39;;
71016;Laerm;60940;52.046;5.340;2023-02-15T00:24:04;32.22;29.71;34.15;;
71016;Laerm;60940;52.046;5.340;2023-02-15T00:24:15;32.33;30.38;34.48;;
71016;Laerm;60940;52.046;5.340;2023-02-15T00:24:26;32.19;30.27;34.60;;
71016;Laerm;60940;52.046;5.340;2023-02-15T00:24:36;32.45;30.36;34.70;;
71016;Laerm;60940;52.046;5.340;2023-02-15T00:24:47;32.42;30.39;34.15;;
71016;Laerm;60940;52.046;5.340;2023-02-15T00:24:57;31.76;30.28;33.36;;
71016;Laerm;60940;52.046;5.340;2023-02-15T00:25:07;32.58;30.36;34.50;;
71016;Laerm;60940;52.046;5.340;2023-02-15T00:25:17;32.14;30.49;33.99;;
71016;Laerm;60940;52.046;5.340;2023-02-15T00:25:28;32.60;30.43;34.51;;
71016;Laerm;60940;52.046;5.340;2023-02-15T00:25:38;31.94;30.51;34.03;;
71016;Laerm;60940;52.046;5.340;2023-02-15T00:25:48;31.86;30.18;33.75;;
71016;Laerm;60940;52.046;5.340;2023-02-15T00:26:11;32.47;29.80;35.03;;
71016;Laerm;60940;52.046;5.340;2023-02-15T00:26:21;32.47;30.05;34.66;;
71016;Laerm;60940;52.046;5.340;2023-02-15T00:26:32;32.08;30.11;34.46;;
71016;Laerm;60940;52.046;5.340;2023-02-15T00:26:42;32.23;30.24;34.34;;
71016;Laerm;60940;52.046;5.340;2023-02-15T00:26:53;32.44;30.37;35.01;;
71016;Laerm;60940;52.046;5.340;2023-02-15T00:27:03;32.21;30.57;34.01;;
71016;Laerm;60940;52.046;5.340;2023-02-15T00:27:13;32.43;30.03;34.40;;
71016;Laerm;60940;52.046;5.340;2023-02-15T00:27:23;32.47;30.81;34.37;;
71016;Laerm;60940;52.046;5.340;2023-02-15T00:27:33;32.44;30.54;34.41;;
71016;Laerm;60940;52.046;5.340;2023-02-15T00:27:44;32.00;30.21;34.30;;
71016;Laerm;60940;52.046;5.340;2023-02-15T00:27:54;32.74;30.58;34.82;;
71016;Laerm;60940;52.046;5.340;2023-02-15T00:28:04;32.47;30.45;34.77;;
71016;Laerm;60940;52.046;5.340;2023-02-15T00:28:15;32.49;30.61;34.59;;
71016;Laerm;60940;52.046;5.340;2023-02-15T00:28:25;32.63;30.31;34.83;;
71016;Laerm;60940;52.046;5.340;2023-02-15T00:28:35;32.32;30.96;34.28;;
71016;Laerm;60940;52.046;5.340;2023-02-15T00:28:46;32.56;29.68;34.63;;
71016;Laerm;60940;52.046;5.340;2023-02-15T00:28:56;32.54;30.74;34.61;;
71016;Laerm;60940;52.046;5.340;2023-02-15T00:29:09;32.68;30.61;34.70;;
71016;Laerm;60940;52.046;5.340;2023-02-15T00:29:20;32.66;30.79;34.82;;
71016;Laerm;60940;52.046;5.340;2023-02-15T00:29:30;32.33;30.33;34.35;;
71016;Laerm;60940;52.046;5.340;2023-02-15T00:29:41;32.49;30.20;34.43;;
71016;Laerm;60940;52.046;5.340;2023-02-15T00:29:51;32.41;30.61;34.58;;
71016;Laerm;60940;52.046;5.340;2023-02-15T00:30:01;32.45;30.72;34.68;;
71016;Laerm;60940;52.046;5.340;2023-02-15T00:30:12;32.67;30.84;34.66;;
71016;Laerm;60940;52.046;5.340;2023-02-15T00:30:22;32.89;30.98;34.72;;
71016;Laerm;60940;52.046;5.340;2023-02-15T00:30:32;32.67;30.71;34.73;;
71016;Laerm;60940;52.046;5.340;2023-02-15T00:30:42;32.44;30.57;34.25;;
71016;Laerm;60940;52.046;5.340;2023-02-15T00:30:53;32.57;30.66;34.92;;
71016;Laerm;60940;52.046;5.340;2023-02-15T00:31:04;32.48;30.58;35.01;;
71016;Laerm;60940;52.046;5.340;2023-02-15T00:31:14;32.78;30.55;34.97;;
71016;Laerm;60940;52.046;5.340;2023-02-15T00:31:24;32.59;30.62;34.21;;
71016;Laerm;60940;52.046;5.340;2023-02-15T00:31:35;32.23;30.27;33.94;;
71016;Laerm;60940;52.046;5.340;2023-02-15T00:31:45;32.27;29.92;34.26;;
71016;Laerm;60940;52.046;5.340;2023-02-15T00:31:56;32.22;30.10;34.55;;
71016;Laerm;60940;52.046;5.340;2023-02-15T00:32:06;32.78;30.72;34.82;;
71016;Laerm;60940;52.046;5.340;2023-02-15T00:32:16;32.27;30.48;34.89;;
71016;Laerm;60940;52.046;5.340;2023-02-15T00:32:26;33.53;31.17;35.75;;
71016;Laerm;60940;52.046;5.340;2023-02-15T00:32:36;33.74;31.38;36.18;;
71016;Laerm;60940;52.046;5.340;2023-02-15T00:32:47;33.50;31.36;35.90;;
71016;Laerm;60940;52.046;5.340;2023-02-15T00:32:57;33.05;31.28;35.59;;
71016;Laerm;60940;52.046;5.340;2023-02-15T00:33:08;32.90;30.87;35.18;;
71016;Laerm;60940;52.046;5.340;2023-02-15T00:33:18;32.78;30.49;34.33;;
71016;Laerm;60940;52.046;5.340;2023-02-15T00:33:28;32.50;30.81;34.47;;
71016;Laerm;60940;52.046;5.340;2023-02-15T00:33:38;31.95;30.46;33.40;;
71016;Laerm;60940;52.046;5.340;2023-02-15T00:33:49;32.54;29.89;34.74;;
71016;Laerm;60940;52.046;5.340;2023-02-15T00:34:06;32.27;30.05;34.60;;
71016;Laerm;60940;52.046;5.340;2023-02-15T00:34:23;32.43;30.46;34.49;;
71016;Laerm;60940;52.046;5.340;2023-02-15T00:34:33;32.45;30.30;35.09;;
71016;Laerm;60940;52.046;5.340;2023-02-15T00:34:44;32.86;31.10;35.11;;
71016;Laerm;60940;52.046;5.340;2023-02-15T00:34:54;31.99;29.43;34.85;;
71016;Laerm;60940;52.046;5.340;2023-02-15T00:35:04;32.64;30.77;34.63;;
71016;Laerm;60940;52.046;5.340;2023-02-15T00:35:14;33.21;30.57;46.50;;
71016;Laerm;60940;52.046;5.340;2023-02-15T00:35:25;32.72;30.22;34.64;;
71016;Laerm;60940;52.046;5.340;2023-02-15T00:35:35;32.30;30.53;34.88;;
71016;Laerm;60940;52.046;5.340;2023-02-15T00:35:45;32.45;30.21;34.73;;
71016;Laerm;60940;52.046;5.340;2023-02-15T00:35:56;32.55;30.68;34.56;;
71016;Laerm;60940;52.046;5.340;2023-02-15T00:36:07;32.25;30.58;34.10;;
71016;Laerm;60940;52.046;5.340;2023-02-15T00:36:18;32.38;30.69;38.01;;
71016;Laerm;60940;52.046;5.340;2023-02-15T00:36:28;32.56;30.60;34.40;;
71016;Laerm;60940;52.046;5.340;2023-02-15T00:36:38;32.63;30.40;34.95;;
71016;Laerm;60940;52.046;5.340;2023-02-15T00:36:49;32.53;30.65;34.79;;
71016;Laerm;60940;52.046;5.340;2023-02-15T00:36:59;32.35;30.39;34.53;;
71016;Laerm;60940;52.046;5.340;2023-02-15T00:37:09;33.46;30.96;47.91;;
71016;Laerm;60940;52.046;5.340;2023-02-15T00:37:19;32.73;30.56;34.72;;
71016;Laerm;60940;52.046;5.340;2023-02-15T00:37:30;32.41;30.18;34.25;;
71016;Laerm;60940;52.046;5.340;2023-02-15T00:37:40;32.55;30.33;34.31;;
71016;Laerm;60940;52.046;5.340;2023-02-15T00:37:50;32.38;30.21;34.68;;
71016;Laerm;60940;52.046;5.340;2023-02-15T00:38:02;32.57;30.59;34.79;;
71016;Laerm;60940;52.046;5.340;2023-02-15T00:38:12;32.78;30.69;34.64;;
71016;Laerm;60940;52.046;5.340;2023-02-15T00:38:22;32.81;30.91;34.65;;
71016;Laerm;60940;52.046;5.340;2023-02-15T00:38:33;32.65;30.73;34.92;;
71016;Laerm;60940;52.046;5.340;2023-02-15T00:38:43;32.67;30.92;34.85;;
71016;Laerm;60940;52.046;5.340;2023-02-15T00:38:53;32.53;30.53;34.75;;
71016;Laerm;60940;52.046;5.340;2023-02-15T00:39:04;32.84;30.37;34.81;;
71016;Laerm;60940;52.046;5.340;2023-02-15T00:39:15;32.36;30.39;34.42;;
71016;Laerm;60940;52.046;5.340;2023-02-15T00:39:25;32.73;30.82;38.46;;
71016;Laerm;60940;52.046;5.340;2023-02-15T00:39:37;32.63;30.93;34.88;;
71016;Laerm;60940;52.046;5.340;2023-02-15T00:39:47;32.34;30.44;34.65;;
71016;Laerm;60940;52.046;5.340;2023-02-15T00:39:57;32.51;30.32;35.08;;
71016;Laerm;60940;52.046;5.340;2023-02-15T00:40:08;32.56;30.97;35.29;;
71016;Laerm;60940;52.046;5.340;2023-02-15T00:40:18;33.29;31.06;37.26;;
71016;Laerm;60940;52.046;5.340;2023-02-15T00:40:28;34.34;30.61;40.44;;
71016;Laerm;60940;52.046;5.340;2023-02-15T00:40:38;32.30;30.19;36.60;;
71016;Laerm;60940;52.046;5.340;2023-02-15T00:40:55;32.32;30.29;34.47;;
71016;Laerm;60940;52.046;5.340;2023-02-15T00:41:06;32.30;30.21;34.60;;
71016;Laerm;60940;52.046;5.340;2023-02-15T00:41:17;32.81;30.46;37.37;;
71016;Laerm;60940;52.046;5.340;2023-02-15T00:41:27;32.53;30.51;38.76;;
71016;Laerm;60940;52.046;5.340;2023-02-15T00:41:37;32.58;30.70;38.83;;
71016;Laerm;60940;52.046;5.340;2023-02-15T00:41:48;32.66;30.68;35.04;;
71016;Laerm;60940;52.046;5.340;2023-02-15T00:41:58;32.23;30.53;34.04;;
71016;Laerm;60940;52.046;5.340;2023-02-15T00:42:08;32.75;30.71;34.99;;
71016;Laerm;60940;52.046;5.340;2023-02-15T00:42:18;32.63;30.56;37.80;;
71016;Laerm;60940;52.046;5.340;2023-02-15T00:42:29;32.69;30.69;34.44;;
71016;Laerm;60940;52.046;5.340;2023-02-15T00:42:39;32.19;30.18;33.66;;
71016;Laerm;60940;52.046;5.340;2023-02-15T00:42:49;33.10;31.10;35.53;;
71016;Laerm;60940;52.046;5.340;2023-02-15T00:42:59;32.48;30.81;34.21;;
71016;Laerm;60940;52.046;5.340;2023-02-15T00:43:10;32.85;30.99;34.54;;
71016;Laerm;60940;52.046;5.340;2023-02-15T00:43:20;32.72;30.92;34.56;;
71016;Laerm;60940;52.046;5.340;2023-02-15T00:43:31;32.72;31.15;34.61;;
71016;Laerm;60940;52.046;5.340;2023-02-15T00:43:42;32.44;30.73;34.76;;
71016;Laerm;60940;52.046;5.340;2023-02-15T00:43:52;32.61;30.29;34.12;;
71016;Laerm;60940;52.046;5.340;2023-02-15T00:44:02;32.47;30.52;34.14;;
71016;Laerm;60940;52.046;5.340;2023-02-15T00:44:13;32.41;30.45;34.79;;
71016;Laerm;60940;52.046;5.340;2023-02-15T00:44:23;32.57;30.69;34.87;;
71016;Laerm;60940;52.046;5.340;2023-02-15T00:44:33;32.55;30.53;34.49;;
71016;Laerm;60940;52.046;5.340;2023-02-15T00:44:44;32.87;30.75;34.70;;
71016;Laerm;60940;52.046;5.340;2023-02-15T00:44:54;32.26;30.57;34.02;;
71016;Laerm;60940;52.046;5.340;2023-02-15T00:45:04;32.33;30.49;34.03;;
71016;Laerm;60940;52.046;5.340;2023-02-15T00:45:14;32.64;30.27;34.33;;
71016;Laerm;60940;52.046;5.340;2023-02-15T00:45:24;32.08;30.18;35.54;;
71016;Laerm;60940;52.046;5.340;2023-02-15T00:45:35;32.69;30.58;35.07;;
71016;Laerm;60940;52.046;5.340;2023-02-15T00:45:46;32.35;30.31;35.04;;
71016;Laerm;60940;52.046;5.340;2023-02-15T00:45:57;32.47;30.82;37.15;;
71016;Laerm;60940;52.046;5.340;2023-02-15T00:46:07;32.30;30.42;34.10;;
71016;Laerm;60940;52.046;5.340;2023-02-15T00:46:17;32.33;30.32;34.47;;
71016;Laerm;60940;52.046;5.340;2023-02-15T00:46:27;32.61;30.66;34.75;;
71016;Laerm;60940;52.046;5.340;2023-02-15T00:46:38;32.64;30.55;34.97;;
71016;Laerm;60940;52.046;5.340;2023-02-15T00:46:48;32.11;30.24;34.10;;
71016;Laerm;60940;52.046;5.340;2023-02-15T00:46:58;32.13;30.32;34.49;;
71016;Laerm;60940;52.046;5.340;2023-02-15T00:47:08;32.55;30.75;34.37;;
71016;Laerm;60940;52.046;5.340;2023-02-15T00:47:19;32.56;30.69;34.77;;
71016;Laerm;60940;52.046;5.340;2023-02-15T00:47:29;32.63;30.22;34.13;;
71016;Laerm;60940;52.046;5.340;2023-02-15T00:47:39;32.55;30.33;34.67;;
71016;Laerm;60940;52.046;5.340;2023-02-15T00:47:49;32.71;30.85;35.15;;
71016;Laerm;60940;52.046;5.340;2023-02-15T00:47:59;32.29;30.21;34.53;;
71016;Laerm;60940;52.046;5.340;2023-02-15T00:48:09;32.69;30.76;34.46;;
71016;Laerm;60940;52.046;5.340;2023-02-15T00:48:20;32.56;30.20;34.25;;
71016;Laerm;60940;52.046;5.340;2023-02-15T00:48:30;32.26;30.71;34.15;;
71016;Laerm;60940;52.046;5.340;2023-02-15T00:48:40;32.61;30.94;34.23;;
71016;Laerm;60940;52.046;5.340;2023-02-15T00:48:51;32.49;30.69;34.87;;
71016;Laerm;60940;52.046;5.340;2023-02-15T00:49:01;33.51;30.88;35.73;;
71016;Laerm;60940;52.046;5.340;2023-02-15T00:49:11;32.94;31.22;34.85;;
71016;Laerm;60940;52.046;5.340;2023-02-15T00:49:21;33.39;30.72;35.15;;
71016;Laerm;60940;52.046;5.340;2023-02-15T00:49:32;33.08;30.79;35.04;;
71016;Laerm;60940;52.046;5.340;2023-02-15T00:49:42;33.12;31.24;35.15;;
71016;Laerm;60940;52.046;5.340;2023-02-15T00:49:52;32.82;30.93;34.46;;
71016;Laerm;60940;52.046;5.340;2023-02-15T00:50:02;32.77;31.08;34.94;;
71016;Laerm;60940;52.046;5.340;2023-02-15T00:50:13;32.95;30.89;36.00;;
71016;Laerm;60940;52.046;5.340;2023-02-15T00:50:23;32.94;30.99;35.01;;
71016;Laerm;60940;52.046;5.340;2023-02-15T00:50:33;32.54;30.67;34.68;;
71016;Laerm;60940;52.046;5.340;2023-02-15T00:50:48;32.49;30.39;34.47;;
71016;Laerm;60940;52.046;5.340;2023-02-15T00:50:59;32.63;30.39;35.32;;
71016;Laerm;60940;52.046;5.340;2023-02-15T00:51:09;32.33;30.54;34.64;;
71016;Laerm;60940;52.046;5.340;2023-02-15T00:51:19;32.85;30.62;34.61;;
71016;Laerm;60940;52.046;5.340;2023-02-15T00:51:33;32.49;30.65;34.96;;
71016;Laerm;60940;52.046;5.340;2023-02-15T00:51:43;32.81;30.51;37.83;;
71016;Laerm;60940;52.046;5.340;2023-02-15T00:51:53;33.02;30.92;46.39;;
71016;Laerm;60940;52.046;5.340;2023-02-15T00:52:03;32.34;30.98;33.80;;
71016;Laerm;60940;52.046;5.340;2023-02-15T00:52:13;32.63;30.98;38.76;;
71016;Laerm;60940;52.046;5.340;2023-02-15T00:52:23;32.39;30.55;35.12;;
71016;Laerm;60940;52.046;5.340;2023-02-15T00:52:34;33.03;30.79;48.41;;
71016;Laerm;60940;52.046;5.340;2023-02-15T00:52:44;32.32;29.99;34.06;;
71016;Laerm;60940;52.046;5.340;2023-02-15T00:52:54;32.43;30.32;34.33;;
71016;Laerm;60940;52.046;5.340;2023-02-15T00:53:04;32.35;30.40;34.46;;
71016;Laerm;60940;52.046;5.340;2023-02-15T00:53:15;32.16;30.14;34.14;;
71016;Laerm;60940;52.046;5.340;2023-02-15T00:53:25;32.46;30.36;34.72;;
71016;Laerm;60940;52.046;5.340;2023-02-15T00:53:36;32.54;30.77;34.31;;
71016;Laerm;60940;52.046;5.340;2023-02-15T00:53:46;32.20;30.23;34.41;;
71016;Laerm;60940;52.046;5.340;2023-02-15T00:53:56;32.13;30.36;33.67;;
71016;Laerm;60940;52.046;5.340;2023-02-15T00:54:06;32.50;30.60;34.67;;
71016;Laerm;60940;52.046;5.340;2023-02-15T00:54:17;32.42;30.06;34.34;;
71016;Laerm;60940;52.046;5.340;2023-02-15T00:54:27;32.08;30.37;34.50;;
71016;Laerm;60940;52.046;5.340;2023-02-15T00:54:37;32.59;30.52;34.28;;
71016;Laerm;60940;52.046;5.340;2023-02-15T00:54:48;32.03;29.85;34.37;;
71016;Laerm;60940;52.046;5.340;2023-02-15T00:54:58;32.61;30.11;34.37;;
71016;Laerm;60940;52.046;5.340;2023-02-15T00:55:09;32.26;30.61;34.69;;
71016;Laerm;60940;52.046;5.340;2023-02-15T00:55:19;32.57;30.18;34.46;;
71016;Laerm;60940;52.046;5.340;2023-02-15T00:55:29;32.30;30.60;34.83;;
71016;Laerm;60940;52.046;5.340;2023-02-15T00:55:39;32.49;30.72;34.64;;
71016;Laerm;60940;52.046;5.340;2023-02-15T00:55:50;32.28;30.67;34.69;;
71016;Laerm;60940;52.046;5.340;2023-02-15T00:56:00;32.71;30.65;34.46;;
71016;Laerm;60940;52.046;5.340;2023-02-15T00:56:10;32.41;29.93;34.62;;
71016;Laerm;60940;52.046;5.340;2023-02-15T00:56:21;32.81;31.07;34.95;;
71016;Laerm;60940;52.046;5.340;2023-02-15T00:56:31;32.42;30.52;34.31;;
71016;Laerm;60940;52.046;5.340;2023-02-15T00:56:41;32.60;30.40;34.83;;
71016;Laerm;60940;52.046;5.340;2023-02-15T00:56:51;32.41;30.65;34.73;;
71016;Laerm;60940;52.046;5.340;2023-02-15T00:57:02;32.48;30.69;34.27;;
71016;Laerm;60940;52.046;5.340;2023-02-15T00:57:12;32.64;30.55;34.39;;
71016;Laerm;60940;52.046;5.340;2023-02-15T00:57:22;32.33;30.52;34.57;;
71016;Laerm;60940;52.046;5.340;2023-02-15T00:57:32;32.19;30.50;34.08;;
71016;Laerm;60940;52.046;5.340;2023-02-15T00:57:42;32.55;30.62;34.73;;
71016;Laerm;60940;52.046;5.340;2023-02-15T00:57:53;32.47;30.19;34.41;;
71016;Laerm;60940;52.046;5.340;2023-02-15T00:58:03;31.94;30.36;33.75;;
71016;Laerm;60940;52.046;5.340;2023-02-15T00:58:13;32.51;30.62;34.39;;
71016;Laerm;60940;52.046;5.340;2023-02-15T00:58:24;32.60;30.67;34.81;;
71016;Laerm;60940;52.046;5.340;2023-02-15T00:58:34;32.61;30.76;34.54;;
71016;Laerm;60940;52.046;5.340;2023-02-15T00:58:45;32.64;30.87;35.21;;
71016;Laerm;60940;52.046;5.340;2023-02-15T00:58:55;32.35;30.74;34.47;;
71016;Laerm;60940;52.046;5.340;2023-02-15T00:59:05;32.43;30.13;34.93;;
71016;Laerm;60940;52.046;5.340;2023-02-15T00:59:15;32.65;30.66;34.47;;
71016;Laerm;60940;52.046;5.340;2023-02-15T00:59:26;32.63;30.64;34.63;;
71016;Laerm;60940;52.046;5.340;2023-02-15T00:59:36;32.76;30.71;35.09;;